sensor_id;sensor_type;location;lat;lon;timestamp;pressure;altitude;pressure_sealevel;temperature;humidity
49515;BME280;35415;47.870;16.058;2024-03-08T00:01:41;97406.19;;;0.70;100.00
49515;BME280;35415;47.870;16.058;2024-03-08T00:04:10;97421.25;;;0.82;100.00
49515;BME280;35415;47.870;16.058;2024-03-08T00:06:37;97455.09;;;1.00;100.00
49515;BME280;35415;47.870;16.058;2024-03-08T00:09:05;97548.94;;;1.59;100.00
49515;BME280;35415;47.870;16.058;2024-03-08T00:11:33;97402.94;;;0.68;100.00
49515;BME280;35415;47.870;16.058;2024-03-08T00:14:02;97547.72;;;1.55;100.00
49515;BME280;35415;47.870;16.058;2024-03-08T00:16:32;97420.44;;;0.82;100.00
49515;BME280;35415;47.870;16.058;2024-03-08T00:18:59;97446.13;;;0.95;100.00
49515;BME280;35415;47.870;16.058;2024-03-08T00:21:27;97605.03;;;1.89;100.00
49515;BME280;35415;47.870;16.058;2024-03-08T00:23:54;97563.19;;;1.58;100.00
49515;BME280;35415;47.870;16.058;2024-03-08T00:26:21;97478.72;;;0.95;100.00
49515;BME280;35415;47.870;16.058;2024-03-08T00:28:49;97554.03;;;1.54;100.00
49515;BME280;35415;47.870;16.058;2024-03-08T00:31:17;97616.06;;;1.92;100.00
49515;BME280;35415;47.870;16.058;2024-03-08T00:33:45;97480.97;;;0.98;100.00
49515;BME280;35415;47.870;16.058;2024-03-08T00:36:13;97492.03;;;1.22;100.00
49515;BME280;35415;47.870;16.058;2024-03-08T00:38:40;97462.47;;;1.05;100.00
49515;BME280;35415;47.870;16.058;2024-03-08T00:41:07;97456.13;;;1.06;100.00
49515;BME280;35415;47.870;16.058;2024-03-08T00:43:35;97453.09;;;1.09;100.00
49515;BME280;35415;47.870;16.058;2024-03-08T00:46:02;97418.22;;;0.85;100.00
49515;BME280;35415;47.870;16.058;2024-03-08T00:48:31;97545.69;;;1.70;100.00
49515;BME280;35415;47.870;16.058;2024-03-08T00:50:58;97412.72;;;0.87;100.00
49515;BME280;35415;47.870;16.058;2024-03-08T00:53:25;97442.69;;;1.07;100.00
49515;BME280;35415;47.870;16.058;2024-03-08T00:55:52;97464.31;;;1.24;100.00
49515;BME280;35415;47.870;16.058;2024-03-08T00:58:20;97402.94;;;0.87;100.00
49515;BME280;35415;47.870;16.058;2024-03-08T01:00:49;97534.25;;;1.69;100.00
49515;BME280;35415;47.870;16.058;2024-03-08T01:03:16;97533.03;;;1.72;100.00
49515;BME280;35415;47.870;16.058;2024-03-08T01:06:04;97410.72;;;1.02;100.00
49515;BME280;35415;47.870;16.058;2024-03-08T01:08:31;97436.97;;;1.17;100.00
49515;BME280;35415;47.870;16.058;2024-03-08T01:10:58;97515.06;;;1.67;100.00
49515;BME280;35415;47.870;16.058;2024-03-08T01:13:26;97591.94;;;2.14;100.00
49515;BME280;35415;47.870;16.058;2024-03-08T01:15:53;97449.22;;;1.25;100.00
49515;BME280;35415;47.870;16.058;2024-03-08T01:18:20;97428.63;;;1.13;100.00
49515;BME280;35415;47.870;16.058;2024-03-08T01:20:47;97526.28;;;1.76;100.00
49515;BME280;35415;47.870;16.058;2024-03-08T01:23:16;97452.66;;;1.32;100.00
49515;BME280;35415;47.870;16.058;2024-03-08T01:25:43;97460.84;;;1.37;100.00
49515;BME280;35415;47.870;16.058;2024-03-08T01:28:10;97364.44;;;0.78;100.00
49515;BME280;35415;47.870;16.058;2024-03-08T01:30:38;97503.84;;;1.72;100.00
49515;BME280;35415;47.870;16.058;2024-03-08T01:33:05;97377.47;;;0.93;100.00
49515;BME280;35415;47.870;16.058;2024-03-08T01:35:33;97593.38;;;2.16;100.00
49515;BME280;35415;47.870;16.058;2024-03-08T01:38:00;97505.50;;;1.73;100.00
49515;BME280;35415;47.870;16.058;2024-03-08T01:40:29;97373.41;;;0.90;100.00
49515;BME280;35415;47.870;16.058;2024-03-08T01:42:56;97368.72;;;0.86;100.00
49515;BME280;35415;47.870;16.058;2024-03-08T01:45:23;97574.19;;;2.14;100.00
49515;BME280;35415;47.870;16.058;2024-03-08T01:47:50;97405.19;;;0.97;100.00
49515;BME280;35415;47.870;16.058;2024-03-08T01:50:18;97502.63;;;1.68;100.00
49515;BME280;35415;47.870;16.058;2024-03-08T01:52:45;97422.09;;;1.16;100.00
49515;BME280;35415;47.870;16.058;2024-03-08T01:55:12;97385.84;;;1.03;100.00
49515;BME280;35415;47.870;16.058;2024-03-08T01:57:43;97394.59;;;1.10;100.00
49515;BME280;35415;47.870;16.058;2024-03-08T02:00:11;97486.09;;;1.66;100.00
49515;BME280;35415;47.870;16.058;2024-03-08T02:02:42;97487.34;;;1.70;100.00
49515;BME280;35415;47.870;16.058;2024-03-08T02:05:10;97484.25;;;1.66;100.00
49515;BME280;35415;47.870;16.058;2024-03-08T02:07:40;97366.06;;;0.93;100.00
49515;BME280;35415;47.870;16.058;2024-03-08T02:10:09;97506.69;;;1.77;100.00
49515;BME280;35415;47.870;16.058;2024-03-08T02:12:38;97433.75;;;1.35;100.00
49515;BME280;35415;47.870;16.058;2024-03-08T02:15:08;97388.69;;;1.08;100.00
49515;BME280;35415;47.870;16.058;2024-03-08T02:17:36;97403.16;;;1.19;100.00
49515;BME280;35415;47.870;16.058;2024-03-08T02:20:04;97408.44;;;1.26;100.00
49515;BME280;35415;47.870;16.058;2024-03-08T02:22:32;97398.03;;;1.17;100.00
49515;BME280;35415;47.870;16.058;2024-03-08T02:25:00;97434.31;;;1.43;100.00
49515;BME280;35415;47.870;16.058;2024-03-08T02:27:29;97356.28;;;1.00;100.00
49515;BME280;35415;47.870;16.058;2024-03-08T02:29:57;97491.41;;;1.86;100.00
49515;BME280;35415;47.870;16.058;2024-03-08T02:32:25;97433.69;;;1.48;100.00
49515;BME280;35415;47.870;16.058;2024-03-08T02:34:56;97480.56;;;1.80;100.00
49515;BME280;35415;47.870;16.058;2024-03-08T02:37:25;97361.38;;;1.08;100.00
49515;BME280;35415;47.870;16.058;2024-03-08T02:39:56;97352.22;;;1.04;100.00
49515;BME280;35415;47.870;16.058;2024-03-08T02:42:23;97366.66;;;1.14;100.00
49515;BME280;35415;47.870;16.058;2024-03-08T02:44:50;97489.16;;;1.89;100.00
49515;BME280;35415;47.870;16.058;2024-03-08T02:47:17;97380.94;;;1.27;100.00
49515;BME280;35415;47.870;16.058;2024-03-08T02:49:44;97382.97;;;1.25;100.00
49515;BME280;35415;47.870;16.058;2024-03-08T02:52:12;97383.59;;;1.27;100.00
49515;BME280;35415;47.870;16.058;2024-03-08T02:54:39;97408.25;;;1.40;100.00
49515;BME280;35415;47.870;16.058;2024-03-08T02:57:08;97468.53;;;1.78;100.00
49515;BME280;35415;47.870;16.058;2024-03-08T02:59:35;97386.44;;;1.25;100.00
49515;BME280;35415;47.870;16.058;2024-03-08T03:02:05;97375.25;;;1.23;100.00
49515;BME280;35415;47.870;16.058;2024-03-08T03:04:33;97486.69;;;1.88;100.00
49515;BME280;35415;47.870;16.058;2024-03-08T03:07:01;97371.75;;;1.16;100.00
49515;BME280;35415;47.870;16.058;2024-03-08T03:09:30;97339.56;;;0.99;100.00
49515;BME280;35415;47.870;16.058;2024-03-08T03:11:58;97398.06;;;1.37;100.00
49515;BME280;35415;47.870;16.058;2024-03-08T03:14:27;97377.06;;;1.23;100.00
49515;BME280;35415;47.870;16.058;2024-03-08T03:16:54;97344.69;;;1.07;100.00
49515;BME280;35415;47.870;16.058;2024-03-08T03:19:21;97471.81;;;1.87;100.00
49515;BME280;35415;47.870;16.058;2024-03-08T03:21:49;97472.19;;;1.84;100.00
49515;BME280;35415;47.870;16.058;2024-03-08T03:24:18;97331.63;;;0.99;100.00
49515;BME280;35415;47.870;16.058;2024-03-08T03:26:46;97471.19;;;1.85;100.00
49515;BME280;35415;47.870;16.058;2024-03-08T03:29:15;97451.44;;;1.74;100.00
49515;BME280;35415;47.870;16.058;2024-03-08T03:31:44;97471.38;;;1.83;100.00
49515;BME280;35415;47.870;16.058;2024-03-08T03:34:12;97395.78;;;1.34;100.00
49515;BME280;35415;47.870;16.058;2024-03-08T03:36:39;97389.06;;;1.32;100.00
49515;BME280;35415;47.870;16.058;2024-03-08T03:39:08;97314.34;;;0.90;100.00
49515;BME280;35415;47.870;16.058;2024-03-08T03:41:38;97364.03;;;1.21;100.00
49515;BME280;35415;47.870;16.058;2024-03-08T03:44:05;97459.16;;;1.82;100.00
49515;BME280;35415;47.870;16.058;2024-03-08T03:46:33;97329.41;;;1.03;100.00
49515;BME280;35415;47.870;16.058;2024-03-08T03:49:02;97403.72;;;1.47;100.00
49515;BME280;35415;47.870;16.058;2024-03-08T03:51:30;97528.44;;;2.32;100.00
49515;BME280;35415;47.870;16.058;2024-03-08T03:53:57;97327.75;;;1.08;100.00
49515;BME280;35415;47.870;16.058;2024-03-08T03:56:27;97367.66;;;1.33;100.00
49515;BME280;35415;47.870;16.058;2024-03-08T03:58:56;97474.25;;;1.88;100.00
49515;BME280;35415;47.870;16.058;2024-03-08T04:01:23;97358.91;;;1.26;100.00
49515;BME280;35415;47.870;16.058;2024-03-08T04:03:50;97341.22;;;1.20;100.00
49515;BME280;35415;47.870;16.058;2024-03-08T04:06:19;97355.66;;;1.31;100.00
49515;BME280;35415;47.870;16.058;2024-03-08T04:08:46;97337.09;;;1.17;100.00
49515;BME280;35415;47.870;16.058;2024-03-08T04:11:13;97325.09;;;1.15;100.00
49515;BME280;35415;47.870;16.058;2024-03-08T04:13:41;97338.34;;;1.22;100.00
49515;BME280;35415;47.870;16.058;2024-03-08T04:16:09;97343.22;;;1.25;100.00
49515;BME280;35415;47.870;16.058;2024-03-08T04:18:37;97448.72;;;1.94;100.00
49515;BME280;35415;47.870;16.058;2024-03-08T04:21:04;97371.13;;;1.47;100.00
49515;BME280;35415;47.870;16.058;2024-03-08T04:23:35;97430.78;;;1.83;100.00
49515;BME280;35415;47.870;16.058;2024-03-08T04:26:02;97367.84;;;1.45;100.00
49515;BME280;35415;47.870;16.058;2024-03-08T04:28:31;97375.59;;;1.53;100.00
49515;BME280;35415;47.870;16.058;2024-03-08T04:30:58;97447.91;;;1.93;100.00
49515;BME280;35415;47.870;16.058;2024-03-08T04:33:26;97464.63;;;2.07;100.00
49515;BME280;35415;47.870;16.058;2024-03-08T04:35:54;97397.78;;;1.65;100.00
49515;BME280;35415;47.870;16.058;2024-03-08T04:38:21;97392.69;;;1.64;100.00
49515;BME280;35415;47.870;16.058;2024-03-08T04:40:51;97368.03;;;1.50;100.00
49515;BME280;35415;47.870;16.058;2024-03-08T04:43:18;97465.59;;;2.13;100.00
49515;BME280;35415;47.870;16.058;2024-03-08T04:45:46;97366.63;;;1.47;100.00
49515;BME280;35415;47.870;16.058;2024-03-08T04:48:16;97335.25;;;1.31;100.00
49515;BME280;35415;47.870;16.058;2024-03-08T04:50:44;97458.84;;;2.17;100.00
49515;BME280;35415;47.870;16.058;2024-03-08T04:53:11;97379.81;;;1.67;100.00
49515;BME280;35415;47.870;16.058;2024-03-08T04:55:38;97394.75;;;1.68;100.00
49515;BME280;35415;47.870;16.058;2024-03-08T04:58:07;97534.88;;;2.62;100.00
49515;BME280;35415;47.870;16.058;2024-03-08T05:00:34;97356.47;;;1.38;100.00
49515;BME280;35415;47.870;16.058;2024-03-08T05:03:01;97305.53;;;1.23;100.00
49515;BME280;35415;47.870;16.058;2024-03-08T05:05:29;97337.28;;;1.42;100.00
49515;BME280;35415;47.870;16.058;2024-03-08T05:07:57;97461.28;;;2.18;100.00
49515;BME280;35415;47.870;16.058;2024-03-08T05:10:24;97391.63;;;1.78;100.00
49515;BME280;35415;47.870;16.058;2024-03-08T05:12:51;97338.09;;;1.43;100.00
49515;BME280;35415;47.870;16.058;2024-03-08T05:15:20;97377.81;;;1.69;100.00
49515;BME280;35415;47.870;16.058;2024-03-08T05:17:47;97340.31;;;1.46;100.00
49515;BME280;35415;47.870;16.058;2024-03-08T05:20:14;97456.84;;;2.19;100.00
49515;BME280;35415;47.870;16.058;2024-03-08T05:22:42;97352.94;;;1.57;100.00
49515;BME280;35415;47.870;16.058;2024-03-08T05:25:10;97340.50;;;1.51;100.00
49515;BME280;35415;47.870;16.058;2024-03-08T05:27:37;97361.91;;;1.63;100.00
49515;BME280;35415;47.870;16.058;2024-03-08T05:30:05;97456.59;;;2.27;100.00
49515;BME280;35415;47.870;16.058;2024-03-08T05:32:35;97374.91;;;1.77;100.00
49515;BME280;35415;47.870;16.058;2024-03-08T05:35:03;97441.50;;;2.21;100.00
49515;BME280;35415;47.870;16.058;2024-03-08T05:37:32;97332.38;;;1.53;100.00
49515;BME280;35415;47.870;16.058;2024-03-08T05:39:59;97313.84;;;1.39;100.00
49515;BME280;35415;47.870;16.058;2024-03-08T05:42:27;97438.44;;;2.17;100.00
49515;BME280;35415;47.870;16.058;2024-03-08T05:44:55;97438.84;;;2.21;100.00
49515;BME280;35415;47.870;16.058;2024-03-08T05:47:24;97450.06;;;2.23;100.00
49515;BME280;35415;47.870;16.058;2024-03-08T05:49:52;97349.06;;;1.60;100.00
49515;BME280;35415;47.870;16.058;2024-03-08T05:52:20;97349.88;;;1.60;100.00
49515;BME280;35415;47.870;16.058;2024-03-08T05:54:47;97515.69;;;2.60;100.00
49515;BME280;35415;47.870;16.058;2024-03-08T05:57:14;97323.81;;;1.44;100.00
49515;BME280;35415;47.870;16.058;2024-03-08T05:59:42;97440.69;;;2.14;100.00
49515;BME280;35415;47.870;16.058;2024-03-08T06:02:09;97450.09;;;2.16;100.00
49515;BME280;35415;47.870;16.058;2024-03-08T06:04:36;97442.13;;;2.16;100.00
49515;BME280;35415;47.870;16.058;2024-03-08T06:07:07;97312.00;;;1.33;100.00
49515;BME280;35415;47.870;16.058;2024-03-08T06:09:38;97378.38;;;1.78;100.00
49515;BME280;35415;47.870;16.058;2024-03-08T06:12:05;97371.28;;;1.65;100.00
49515;BME280;35415;47.870;16.058;2024-03-08T06:14:35;97330.75;;;1.45;100.00
49515;BME280;35415;47.870;16.058;2024-03-08T06:17:03;97456.84;;;2.12;100.00
49515;BME280;35415;47.870;16.058;2024-03-08T06:19:31;97354.16;;;1.61;100.00
49515;BME280;35415;47.870;16.058;2024-03-08T06:21:59;97330.53;;;1.46;100.00
49515;BME280;35415;47.870;16.058;2024-03-08T06:24:29;97420.75;;;1.98;100.00
49515;BME280;35415;47.870;16.058;2024-03-08T06:26:57;97360.28;;;1.62;100.00
49515;BME280;35415;47.870;16.058;2024-03-08T06:29:24;97465.16;;;2.29;100.00
49515;BME280;35415;47.870;16.058;2024-03-08T06:31:51;97364.13;;;1.66;100.00
49515;BME280;35415;47.870;16.058;2024-03-08T06:34:19;97384.28;;;1.80;100.00
49515;BME280;35415;47.870;16.058;2024-03-08T06:36:46;97462.91;;;2.26;100.00
49515;BME280;35415;47.870;16.058;2024-03-08T06:39:13;97464.97;;;2.24;100.00
49515;BME280;35415;47.870;16.058;2024-03-08T06:41:42;97334.00;;;1.47;100.00
49515;BME280;35415;47.870;16.058;2024-03-08T06:44:10;97340.31;;;1.46;100.00
49515;BME280;35415;47.870;16.058;2024-03-08T06:46:37;97478.22;;;2.30;100.00
49515;BME280;35415;47.870;16.058;2024-03-08T06:49:05;97354.41;;;1.53;100.00
49515;BME280;35415;47.870;16.058;2024-03-08T06:51:33;97449.50;;;2.07;100.00
49515;BME280;35415;47.870;16.058;2024-03-08T06:54:00;97378.84;;;1.68;100.00
49515;BME280;35415;47.870;16.058;2024-03-08T06:56:34;97396.13;;;1.77;100.00
49515;BME280;35415;47.870;16.058;2024-03-08T06:59:02;97353.75;;;1.51;100.00
49515;BME280;35415;47.870;16.058;2024-03-08T07:01:30;97552.38;;;2.77;100.00
49515;BME280;35415;47.870;16.058;2024-03-08T07:03:57;97470.66;;;2.27;100.00
49515;BME280;35415;47.870;16.058;2024-03-08T07:06:25;97379.44;;;1.70;100.00
49515;BME280;35415;47.870;16.058;2024-03-08T07:08:54;97379.44;;;1.70;100.00
49515;BME280;35415;47.870;16.058;2024-03-08T07:11:21;97467.41;;;2.25;100.00
49515;BME280;35415;47.870;16.058;2024-03-08T07:13:49;97424.44;;;2.03;100.00
49515;BME280;35415;47.870;16.058;2024-03-08T07:16:18;97357.22;;;1.58;100.00
49515;BME280;35415;47.870;16.058;2024-03-08T07:18:47;97349.91;;;1.54;100.00
49515;BME280;35415;47.870;16.058;2024-03-08T07:21:17;97414.03;;;1.95;100.00
49515;BME280;35415;47.870;16.058;2024-03-08T07:23:45;97440.31;;;2.10;100.00
49515;BME280;35415;47.870;16.058;2024-03-08T07:26:39;97486.34;;;2.42;100.00
49515;BME280;35415;47.870;16.058;2024-03-08T07:29:06;97561.13;;;2.84;100.00
49515;BME280;35415;47.870;16.058;2024-03-08T07:31:35;97460.06;;;2.27;100.00
49515;BME280;35415;47.870;16.058;2024-03-08T07:34:15;97408.34;;;1.92;100.00
49515;BME280;35415;47.870;16.058;2024-03-08T07:36:43;97419.50;;;2.00;100.00
49515;BME280;35415;47.870;16.058;2024-03-08T07:39:10;97491.44;;;2.44;100.00
49515;BME280;35415;47.870;16.058;2024-03-08T07:41:39;97361.31;;;1.61;100.00
49515;BME280;35415;47.870;16.058;2024-03-08T07:44:07;97365.75;;;1.67;100.00
49515;BME280;35415;47.870;16.058;2024-03-08T07:46:36;97416.69;;;2.02;100.00
49515;BME280;35415;47.870;16.058;2024-03-08T07:49:04;97543.56;;;2.83;100.00
49515;BME280;35415;47.870;16.058;2024-03-08T07:51:31;97366.19;;;1.70;100.00
49515;BME280;35415;47.870;16.058;2024-03-08T07:54:00;97417.47;;;2.09;100.00
49515;BME280;35415;47.870;16.058;2024-03-08T07:56:29;97481.81;;;2.49;100.00
49515;BME280;35415;47.870;16.058;2024-03-08T07:58:57;97397.69;;;1.98;100.00
49515;BME280;35415;47.870;16.058;2024-03-08T08:01:24;97446.41;;;2.24;100.00
49515;BME280;35415;47.870;16.058;2024-03-08T08:03:52;97430.28;;;2.19;100.00
49515;BME280;35415;47.870;16.058;2024-03-08T08:06:20;97408.91;;;2.00;100.00
49515;BME280;35415;47.870;16.058;2024-03-08T08:08:47;97368.56;;;1.92;100.00
49515;BME280;35415;47.870;16.058;2024-03-08T08:11:15;97484.41;;;2.62;100.00
49515;BME280;35415;47.870;16.058;2024-03-08T08:13:42;97566.34;;;3.10;100.00
49515;BME280;35415;47.870;16.058;2024-03-08T08:16:10;97474.38;;;2.64;100.00
49515;BME280;35415;47.870;16.058;2024-03-08T08:18:38;97475.41;;;2.70;100.00
49515;BME280;35415;47.870;16.058;2024-03-08T08:21:08;97402.69;;;2.26;100.00
49515;BME280;35415;47.870;16.058;2024-03-08T08:23:36;97478.00;;;2.77;100.00
49515;BME280;35415;47.870;16.058;2024-03-08T08:26:03;97386.56;;;2.28;100.00
49515;BME280;35415;47.870;16.058;2024-03-08T08:28:33;97384.28;;;2.31;100.00
49515;BME280;35415;47.870;16.058;2024-03-08T08:31:00;97348.22;;;2.17;100.00
49515;BME280;35415;47.870;16.058;2024-03-08T08:33:29;97454.03;;;2.90;100.00
49515;BME280;35415;47.870;16.058;2024-03-08T08:35:56;97356.13;;;2.30;100.00
49515;BME280;35415;47.870;16.058;2024-03-08T08:38:25;97354.03;;;2.39;100.00
49515;BME280;35415;47.870;16.058;2024-03-08T08:40:52;97465.94;;;3.12;100.00
49515;BME280;35415;47.870;16.058;2024-03-08T08:43:19;97538.16;;;3.66;100.00
49515;BME280;35415;47.870;16.058;2024-03-08T08:45:50;97466.81;;;3.31;100.00
49515;BME280;35415;47.870;16.058;2024-03-08T08:48:20;97524.38;;;3.75;100.00
49515;BME280;35415;47.870;16.058;2024-03-08T08:50:47;97356.06;;;2.68;100.00
49515;BME280;35415;47.870;16.058;2024-03-08T08:53:16;97409.31;;;3.12;100.00
49515;BME280;35415;47.870;16.058;2024-03-08T08:55:45;97348.06;;;3.00;100.00
49515;BME280;35415;47.870;16.058;2024-03-08T08:58:13;97400.25;;;3.44;100.00
49515;BME280;35415;47.870;16.058;2024-03-08T09:00:40;97370.75;;;3.27;100.00
49515;BME280;35415;47.870;16.058;2024-03-08T09:03:07;97372.78;;;3.50;100.00
49515;BME280;35415;47.870;16.058;2024-03-08T09:05:34;97434.44;;;4.02;100.00
49515;BME280;35415;47.870;16.058;2024-03-08T09:08:03;97525.00;;;4.75;100.00
49515;BME280;35415;47.870;16.058;2024-03-08T09:10:30;97353.56;;;3.85;100.00
49515;BME280;35415;47.870;16.058;2024-03-08T09:13:00;97454.47;;;4.60;100.00
49515;BME280;35415;47.870;16.058;2024-03-08T09:15:29;97347.75;;;3.95;100.00
49515;BME280;35415;47.870;16.058;2024-03-08T09:17:57;97455.25;;;4.78;100.00
49515;BME280;35415;47.870;16.058;2024-03-08T09:20:24;97400.38;;;4.59;100.00
49515;BME280;35415;47.870;16.058;2024-03-08T09:22:52;97454.88;;;5.05;100.00
49515;BME280;35415;47.870;16.058;2024-03-08T09:25:20;97391.28;;;4.78;100.00
49515;BME280;35415;47.870;16.058;2024-03-08T09:27:48;97337.56;;;4.51;100.00
49515;BME280;35415;47.870;16.058;2024-03-08T09:30:17;97443.00;;;5.31;100.00
49515;BME280;35415;47.870;16.058;2024-03-08T09:32:44;97511.50;;;5.84;100.00
49515;BME280;35415;47.870;16.058;2024-03-08T09:35:12;97334.88;;;4.81;100.00
49515;BME280;35415;47.870;16.058;2024-03-08T09:37:39;97331.75;;;4.84;100.00
49515;BME280;35415;47.870;16.058;2024-03-08T09:40:06;97357.28;;;5.16;100.00
49515;BME280;35415;47.870;16.058;2024-03-08T09:42:36;97345.00;;;5.14;100.00
49515;BME280;35415;47.870;16.058;2024-03-08T09:45:09;97514.34;;;6.24;100.00
49515;BME280;35415;47.870;16.058;2024-03-08T09:47:39;97331.78;;;5.20;97.33
49515;BME280;35415;47.870;16.058;2024-03-08T09:50:08;97374.13;;;5.51;98.53
49515;BME280;35415;47.870;16.058;2024-03-08T09:52:38;97334.78;;;5.35;98.76
49515;BME280;35415;47.870;16.058;2024-03-08T09:55:06;97508.06;;;6.42;91.71
49515;BME280;35415;47.870;16.058;2024-03-08T09:57:35;97345.13;;;5.55;94.04
49515;BME280;35415;47.870;16.058;2024-03-08T10:00:04;97320.88;;;5.44;93.93
49515;BME280;35415;47.870;16.058;2024-03-08T10:02:46;97378.41;;;5.64;86.70
49515;BME280;35415;47.870;16.058;2024-03-08T10:05:14;97327.38;;;5.37;83.50
49515;BME280;35415;47.870;16.058;2024-03-08T10:07:41;97340.13;;;5.47;86.91
49515;BME280;35415;47.870;16.058;2024-03-08T10:10:08;97502.66;;;6.53;89.80
49515;BME280;35415;47.870;16.058;2024-03-08T10:12:38;97390.81;;;5.82;90.46
49515;BME280;35415;47.870;16.058;2024-03-08T10:15:06;97502.91;;;6.52;91.38
49515;BME280;35415;47.870;16.058;2024-03-08T10:17:34;97375.59;;;5.70;89.79
49515;BME280;35415;47.870;16.058;2024-03-08T10:20:04;97483.44;;;6.40;92.93
49515;BME280;35415;47.870;16.058;2024-03-08T10:22:40;97358.91;;;5.63;91.72
49515;BME280;35415;47.870;16.058;2024-03-08T10:25:09;97324.03;;;5.41;93.13
49515;BME280;35415;47.870;16.058;2024-03-08T10:27:38;97433.66;;;6.10;92.33
49515;BME280;35415;47.870;16.058;2024-03-08T10:30:10;97514.38;;;6.64;88.61
49515;BME280;35415;47.870;16.058;2024-03-08T10:32:38;97354.72;;;5.67;92.14
49515;BME280;35415;47.870;16.058;2024-03-08T10:35:08;97510.91;;;6.63;89.82
49515;BME280;35415;47.870;16.058;2024-03-08T10:37:44;97433.16;;;6.25;88.59
49515;BME280;35415;47.870;16.058;2024-03-08T10:40:16;97391.72;;;5.87;89.26
49515;BME280;35415;47.870;16.058;2024-03-08T10:42:51;97360.31;;;5.66;91.66
49515;BME280;35415;47.870;16.058;2024-03-08T10:45:30;97401.00;;;5.85;91.76
49515;BME280;35415;47.870;16.058;2024-03-08T10:48:08;97511.25;;;6.67;90.70
49515;BME280;35415;47.870;16.058;2024-03-08T10:50:38;97320.19;;;5.49;87.71
49515;BME280;35415;47.870;16.058;2024-03-08T10:53:06;97356.00;;;5.65;90.41
49515;BME280;35415;47.870;16.058;2024-03-08T10:55:37;97378.97;;;5.89;92.26
49515;BME280;35415;47.870;16.058;2024-03-08T10:58:06;97312.50;;;5.53;90.72
49515;BME280;35415;47.870;16.058;2024-03-08T11:00:34;97428.16;;;6.28;90.60
49515;BME280;35415;47.870;16.058;2024-03-08T11:03:01;97310.22;;;5.56;88.29
49515;BME280;35415;47.870;16.058;2024-03-08T11:05:36;97343.72;;;5.76;92.00
49515;BME280;35415;47.870;16.058;2024-03-08T11:08:16;97484.03;;;6.70;89.92
49515;BME280;35415;47.870;16.058;2024-03-08T11:10:49;97312.38;;;5.71;90.93
49515;BME280;35415;47.870;16.058;2024-03-08T11:13:33;97327.22;;;5.79;90.96
49515;BME280;35415;47.870;16.058;2024-03-08T11:16:01;97330.00;;;5.84;90.72
49515;BME280;35415;47.870;16.058;2024-03-08T11:18:32;97353.88;;;6.02;91.21
49515;BME280;35415;47.870;16.058;2024-03-08T11:21:02;97476.31;;;6.85;89.71
49515;BME280;35415;47.870;16.058;2024-03-08T11:23:34;97326.03;;;5.98;88.52
49515;BME280;35415;47.870;16.058;2024-03-08T11:26:02;97470.84;;;6.92;88.31
49515;BME280;35415;47.870;16.058;2024-03-08T11:28:33;97411.94;;;6.58;88.49
49515;BME280;35415;47.870;16.058;2024-03-08T11:31:22;97469.50;;;7.06;89.99
49515;BME280;35415;47.870;16.058;2024-03-08T11:33:50;97276.13;;;5.87;86.30
49515;BME280;35415;47.870;16.058;2024-03-08T11:36:20;97306.06;;;6.00;88.63
49515;BME280;35415;47.870;16.058;2024-03-08T11:38:51;97287.81;;;6.09;89.22
49515;BME280;35415;47.870;16.058;2024-03-08T11:41:21;97297.06;;;6.18;88.82
49515;BME280;35415;47.870;16.058;2024-03-08T11:43:49;97362.53;;;6.61;89.95
49515;BME280;35415;47.870;16.058;2024-03-08T11:46:17;97403.25;;;6.97;90.56
49515;BME280;35415;47.870;16.058;2024-03-08T11:48:46;97382.25;;;6.88;88.82
49515;BME280;35415;47.870;16.058;2024-03-08T11:51:15;97349.13;;;6.73;87.72
49515;BME280;35415;47.870;16.058;2024-03-08T11:53:44;97324.38;;;6.66;90.36
49515;BME280;35415;47.870;16.058;2024-03-08T11:56:14;97247.03;;;6.42;89.16
49515;BME280;35415;47.870;16.058;2024-03-08T12:01:19;97278.06;;;6.77;87.68
49515;BME280;35415;47.870;16.058;2024-03-08T12:03:52;97250.09;;;6.68;88.03
49515;BME280;35415;47.870;16.058;2024-03-08T12:06:20;97377.09;;;7.49;88.15
49515;BME280;35415;47.870;16.058;2024-03-08T12:08:48;97355.19;;;7.52;87.56
49515;BME280;35415;47.870;16.058;2024-03-08T12:11:18;97234.56;;;6.81;86.26
49515;BME280;35415;47.870;16.058;2024-03-08T12:13:49;97410.44;;;7.97;85.64
49515;BME280;35415;47.870;16.058;2024-03-08T12:16:17;97343.31;;;7.65;83.62
49515;BME280;35415;47.870;16.058;2024-03-08T12:18:45;97341.47;;;7.65;82.48
49515;BME280;35415;47.870;16.058;2024-03-08T12:21:12;97339.66;;;7.71;84.17
49515;BME280;35415;47.870;16.058;2024-03-08T12:23:44;97343.47;;;7.75;83.34
49515;BME280;35415;47.870;16.058;2024-03-08T12:26:12;97326.59;;;7.74;85.92
49515;BME280;35415;47.870;16.058;2024-03-08T12:28:42;97221.44;;;7.18;86.00
49515;BME280;35415;47.870;16.058;2024-03-08T12:31:12;97229.94;;;7.32;87.07
49515;BME280;35415;47.870;16.058;2024-03-08T12:33:48;97226.25;;;7.38;83.77
49515;BME280;35415;47.870;16.058;2024-03-08T12:36:16;97235.09;;;7.39;79.41
49515;BME280;35415;47.870;16.058;2024-03-08T12:38:44;97393.97;;;8.49;82.23
49515;BME280;35415;47.870;16.058;2024-03-08T12:41:13;97323.31;;;8.11;82.45
49515;BME280;35415;47.870;16.058;2024-03-08T12:43:42;97242.47;;;7.70;83.25
49515;BME280;35415;47.870;16.058;2024-03-08T12:46:14;97227.97;;;7.66;82.10
49515;BME280;35415;47.870;16.058;2024-03-08T12:48:42;97212.41;;;7.63;79.71
49515;BME280;35415;47.870;16.058;2024-03-08T12:51:12;97212.41;;;7.63;77.04
49515;BME280;35415;47.870;16.058;2024-03-08T12:53:41;97261.34;;;7.80;75.78
49515;BME280;35415;47.870;16.058;2024-03-08T12:56:09;97375.44;;;8.69;78.29
49515;BME280;35415;47.870;16.058;2024-03-08T12:58:37;97230.94;;;7.70;77.94
49515;BME280;35415;47.870;16.058;2024-03-08T13:01:06;97232.75;;;7.86;78.17
49515;BME280;35415;47.870;16.058;2024-03-08T13:03:34;97247.31;;;7.95;78.81